Time;durP1;ratioP1;P1;durP2;ratioP2;P2;SDS_P1;SDS_P2;PMS_P1;PMS_P2;Temp;Humidity;BMP_temperature;BMP_pressure;BME280_temperature;BME280_humidity;BME280_pressure;Samples;Min_cycle;Max_cycle;Signal;HPM_P1;HPM_P2
2023/07/03 00:01:33;;;;;;;6.78;4.22;;;18.60;1.00;;;;;;5199688;28;20020;-71
2023/07/03 00:04:04;;;;;;;7.78;3.38;;;18.60;1.00;;;;;;5220347;28;20047;-71
2023/07/03 00:06:36;;;;;;;5.70;3.58;;;18.60;1.00;;;;;;5211086;28;20241;-72
2023/07/03 00:09:09;;;;;;;6.13;3.47;;;18.50;71.90;;;;;;5187475;28;20040;-70
2023/07/03 00:11:40;;;;;;;8.57;3.97;;;18.50;84.60;;;;;;5204699;28;20039;-71
2023/07/03 00:14:11;;;;;;;6.32;3.70;;;18.40;99.90;;;;;;5223495;28;20298;-71
2023/07/03 00:16:44;;;;;;;6.57;3.88;;;18.40;99.90;;;;;;5221580;28;20028;-71
2023/07/03 00:19:25;;;;;;;5.90;3.42;;;18.40;99.90;;;;;;5239116;28;20054;-70
2023/07/03 00:22:03;;;;;;;6.88;4.68;;;18.40;99.90;;;;;;5240860;28;20189;-70
2023/07/03 00:24:37;;;;;;;5.75;3.42;;;18.30;99.90;;;;;;5203642;28;20039;-70
2023/07/03 00:27:24;;;;;;;5.70;3.78;;;18.20;99.90;;;;;;5239183;28;20031;-70
2023/07/03 00:29:55;;;;;;;8.73;4.10;;;18.10;99.90;;;;;;5205755;28;20039;-70
2023/07/03 00:32:28;;;;;;;8.27;3.78;;;18.10;99.90;;;;;;5220310;28;20313;-70
2023/07/03 00:38:27;;;;;;;6.95;3.72;;;17.80;99.90;;;;;;5220684;28;20045;-70
2023/07/03 00:40:58;;;;;;;6.38;3.95;;;17.60;1.00;;;;;;5203702;28;20029;-69
2023/07/03 00:43:30;;;;;;;8.07;3.83;;;17.40;1.00;;;;;;5238656;28;20029;-69
2023/07/03 00:46:01;;;;;;;6.07;3.75;;;17.30;1.00;;;;;;5220791;28;20016;-70
2023/07/03 00:48:33;;;;;;;7.82;3.80;;;17.10;1.00;;;;;;5220457;28;20035;-70
2023/07/03 00:51:09;;;;;;;7.85;4.30;;;17.00;1.00;;;;;;5203947;28;20043;-70
2023/07/03 00:53:40;;;;;;;9.43;4.20;;;16.80;1.00;;;;;;5203976;28;20328;-70
2023/07/03 00:56:14;;;;;;;5.20;3.70;;;16.70;1.00;;;;;;5220535;28;20021;-70
2023/07/03 00:58:49;;;;;;;9.05;4.15;;;16.70;1.00;;;;;;5220531;28;20100;-70
2023/07/03 01:01:49;;;;;;;8.00;4.15;;;16.70;1.00;;;;;;5272133;22;20024;-86
2023/07/03 01:04:35;;;;;;;5.68;3.72;;;16.80;1.00;;;;;;5168196;28;20036;-86
2023/07/03 01:07:13;;;;;;;5.75;3.97;;;16.80;1.00;;;;;;5266876;28;20031;-86
2023/07/03 01:09:59;;;;;;;8.20;3.65;;;17.00;1.00;;;;;;5250798;28;20034;-86
2023/07/03 01:12:34;;;;;;;6.45;4.35;;;17.00;1.00;;;;;;5250183;28;20038;-87
2023/07/03 01:15:08;;;;;;;6.47;4.20;;;17.00;1.00;;;;;;5250009;28;20028;-86
2023/07/03 01:17:43;;;;;;;8.82;3.58;;;17.00;1.00;;;;;;5250302;28;20054;-88
2023/07/03 01:20:19;;;;;;;6.03;3.90;;;17.10;1.00;;;;;;5266810;28;20028;-87
2023/07/03 01:23:15;;;;;;;7.95;4.45;;;17.10;1.00;;;;;;5250703;28;20028;-85
2023/07/03 01:25:51;;;;;;;6.22;3.95;;;17.00;1.00;;;;;;5266773;28;20035;-87
2023/07/03 01:28:25;;;;;;;9.70;5.15;;;16.90;1.00;;;;;;5250622;28;20032;-87
2023/07/03 01:31:07;;;;;;;6.80;4.00;;;16.70;1.00;;;;;;5234537;28;20042;-86
2023/07/03 01:33:45;;;;;;;15.93;4.30;;;16.60;1.00;;;;;;5265774;28;20340;-87
2023/07/03 01:36:17;;;;;;;8.10;4.10;;;16.40;1.00;;;;;;5233341;28;20037;-87
2023/07/03 01:38:54;;;;;;;7.80;4.32;;;16.50;1.00;;;;;;5197982;28;20025;-87
2023/07/03 01:41:37;;;;;;;7.75;4.25;;;16.50;1.00;;;;;;5195065;28;20199;-87
2023/07/03 01:44:11;;;;;;;9.50;4.40;;;16.50;1.00;;;;;;5168921;28;20034;-86
2023/07/03 01:46:43;;;;;;;6.72;3.78;;;16.60;1.00;;;;;;5168360;23;20060;-71
2023/07/03 01:49:18;;;;;;;6.43;4.05;;;16.60;1.00;;;;;;5144799;28;20039;-71
2023/07/03 01:52:10;;;;;;;8.00;4.18;;;16.50;1.00;;;;;;5138302;28;20037;-71
2023/07/03 01:55:06;;;;;;;7.13;4.80;;;16.50;1.00;;;;;;5094617;29;20032;-71
2023/07/03 01:58:00;;;;;;;7.60;4.55;;;16.50;1.00;;;;;;5083708;29;20016;-70
2023/07/03 02:00:48;;;;;;;7.50;3.80;;;16.40;1.00;;;;;;5093190;28;20042;-71
2023/07/03 02:03:36;;;;;;;8.05;4.10;;;16.40;1.00;;;;;;5163268;28;20036;-70
2023/07/03 02:06:33;;;;;;;7.30;4.28;;;16.30;1.00;;;;;;5084812;28;20053;-70
2023/07/03 02:09:09;;;;;;;8.25;4.32;;;16.30;1.00;;;;;;5145217;28;20139;-70
2023/07/03 02:11:46;;;;;;;6.55;4.38;;;16.20;9.20;;;;;;5161419;28;20040;-70
2023/07/03 02:14:20;;;;;;;7.28;4.32;;;16.20;27.30;;;;;;5142523;28;20367;-70
2023/07/03 02:16:52;;;;;;;7.78;3.88;;;16.10;74.00;;;;;;5160072;28;20048;-71
2023/07/03 02:19:31;;;;;;;7.50;4.00;;;16.00;99.90;;;;;;5150668;28;20051;-70
2023/07/03 02:22:06;;;;;;;6.80;4.18;;;15.90;99.90;;;;;;5077967;29;20493;-71
2023/07/03 02:24:38;;;;;;;8.52;3.92;;;15.90;99.90;;;;;;5082977;29;20047;-71
2023/07/03 02:27:10;;;;;;;7.40;4.28;;;15.80;99.90;;;;;;5153099;28;20046;-70
2023/07/03 02:29:41;;;;;;;7.22;4.60;;;15.70;99.90;;;;;;5162527;28;20040;-71
2023/07/03 02:32:18;;;;;;;7.65;4.25;;;15.80;99.90;;;;;;5139565;28;20204;-71
2023/07/03 02:34:50;;;;;;;5.40;4.10;;;15.70;99.90;;;;;;5146224;28;20047;-71
2023/07/03 02:37:21;;;;;;;6.85;4.43;;;15.70;99.90;;;;;;5161625;28;20027;-71
2023/07/03 02:39:57;;;;;;;7.13;3.88;;;15.60;99.90;;;;;;5160442;28;20042;-71
2023/07/03 02:42:32;;;;;;;7.35;4.05;;;15.60;99.90;;;;;;5162466;28;20113;-71
2023/07/03 02:45:04;;;;;;;7.00;3.45;;;15.60;99.90;;;;;;5145645;28;20058;-71
2023/07/03 02:47:36;;;;;;;7.10;3.78;;;15.60;99.90;;;;;;5132854;28;20032;-71
2023/07/03 02:50:08;;;;;;;6.95;4.30;;;15.60;99.90;;;;;;5099037;29;20031;-71
2023/07/03 02:52:58;;;;;;;5.95;3.63;;;15.60;99.90;;;;;;5154471;28;20038;-71
2023/07/03 02:55:31;;;;;;;6.28;3.83;;;15.60;99.90;;;;;;5146294;28;20050;-70
2023/07/03 02:58:06;;;;;;;6.60;4.13;;;15.50;99.90;;;;;;5162511;28;20039;-70
2023/07/03 03:00:38;;;;;;;5.72;4.03;;;15.50;99.90;;;;;;5080704;28;20050;-70
2023/07/03 03:03:10;;;;;;;7.95;4.20;;;15.50;99.90;;;;;;5098556;28;20032;-70
2023/07/03 03:05:41;;;;;;;7.70;4.13;;;15.40;99.90;;;;;;5146087;28;20235;-70
2023/07/03 03:08:15;;;;;;;7.70;4.35;;;15.30;99.90;;;;;;5166612;28;20029;-70
2023/07/03 03:10:50;;;;;;;6.30;3.95;;;15.30;99.90;;;;;;5182052;28;20033;-72
2023/07/03 03:13:24;;;;;;;8.38;4.28;;;15.30;99.90;;;;;;5179412;28;20030;-72
2023/07/03 03:15:56;;;;;;;6.05;3.70;;;15.30;99.90;;;;;;5143137;28;20578;-70
2023/07/03 03:18:28;;;;;;;5.55;3.63;;;15.40;99.90;;;;;;5144832;28;20033;-70
2023/07/03 03:21:01;;;;;;;8.50;4.70;;;15.40;99.90;;;;;;5157405;28;20044;-70
2023/07/03 03:23:37;;;;;;;7.43;4.53;;;15.50;99.90;;;;;;5134546;28;20035;-70
2023/07/03 03:26:11;;;;;;;8.30;4.65;;;15.50;99.90;;;;;;5153814;28;20033;-71
2023/07/03 03:28:44;;;;;;;6.80;4.43;;;15.50;99.90;;;;;;5161104;28;20044;-70
2023/07/03 03:31:16;;;;;;;5.28;3.83;;;15.70;99.90;;;;;;5176117;28;20034;-71
2023/07/03 03:33:50;;;;;;;7.18;3.92;;;15.80;99.90;;;;;;5161644;28;20034;-70
2023/07/03 03:36:24;;;;;;;7.53;4.13;;;15.90;99.90;;;;;;5179417;28;20037;-70
2023/07/03 03:38:55;;;;;;;7.38;3.92;;;15.90;99.90;;;;;;5161085;28;20041;-69
2023/07/03 03:41:32;;;;;;;7.53;4.10;;;16.00;99.90;;;;;;5161507;28;20033;-70
2023/07/03 03:44:06;;;;;;;6.88;3.72;;;16.10;99.90;;;;;;5135224;28;20048;-69
2023/07/03 03:46:42;;;;;;;7.13;4.45;;;16.20;99.90;;;;;;5154962;28;20784;-71
2023/07/03 03:49:13;;;;;;;8.40;4.43;;;16.30;99.90;;;;;;5153238;28;20254;-71
2023/07/03 03:51:47;;;;;;;7.05;3.85;;;16.40;99.90;;;;;;5144573;28;20030;-71
2023/07/03 03:54:21;;;;;;;8.18;4.18;;;16.50;99.90;;;;;;5160072;28;20045;-71
2023/07/03 03:56:59;;;;;;;9.85;4.35;;;16.70;99.90;;;;;;5150493;28;20026;-71
2023/07/03 03:59:31;;;;;;;5.80;3.65;;;16.90;87.80;;;;;;5159902;28;20041;-72
2023/07/03 04:02:04;;;;;;;8.23;4.25;;;17.10;1.00;;;;;;5170501;28;20022;-71
2023/07/03 04:04:35;;;;;;;6.87;4.00;;;17.40;1.00;;;;;;5160045;28;20050;-70
2023/07/03 04:07:10;;;;;;;8.73;4.65;;;17.50;1.00;;;;;;5161283;28;20032;-70
2023/07/03 04:09:41;;;;;;;6.25;3.90;;;17.60;1.00;;;;;;5159837;28;20233;-71
2023/07/03 04:12:12;;;;;;;6.38;3.85;;;17.60;1.00;;;;;;5178701;28;20533;-71
2023/07/03 04:14:44;;;;;;;6.75;3.95;;;17.50;1.00;;;;;;5159744;28;20037;-70
2023/07/03 04:17:18;;;;;;;6.35;4.18;;;17.60;1.00;;;;;;5142944;28;20048;-71
2023/07/03 04:19:49;;;;;;;7.30;3.83;;;17.60;1.00;;;;;;5158040;28;20042;-70
2023/07/03 04:22:21;;;;;;;6.63;3.47;;;17.70;1.00;;;;;;5177803;28;20056;-71
2023/07/03 04:24:55;;;;;;;5.05;3.70;;;17.90;1.00;;;;;;5159802;28;20044;-71
2023/07/03 04:27:29;;;;;;;5.97;3.95;;;18.20;1.00;;;;;;5155744;28;20366;-71
2023/07/03 04:30:02;;;;;;;6.60;4.40;;;18.50;1.00;;;;;;5140642;28;20049;-71
2023/07/03 04:32:37;;;;;;;6.13;3.42;;;18.80;1.00;;;;;;5165841;28;20022;-72
2023/07/03 04:35:08;;;;;;;6.10;3.83;;;19.10;1.00;;;;;;5126323;28;20423;-70
2023/07/03 04:37:40;;;;;;;6.38;3.97;;;19.40;1.00;;;;;;5162452;28;20026;-71
2023/07/03 04:40:14;;;;;;;4.57;3.42;;;19.70;99.90;;;;;;5151506;28;20042;-72
2023/07/03 04:42:45;;;;;;;;;;;20.20;99.90;;;;;;5177618;28;20307;-71
2023/07/03 04:45:21;;;;;;;5.00;3.63;;;20.50;94.50;;;;;;5175524;28;19918;-71
2023/07/03 04:47:55;;;;;;;5.32;3.75;;;20.80;1.00;;;;;;5161104;28;20514;-71
2023/07/03 04:50:26;;;;;;;6.15;3.97;;;21.20;1.00;;;;;;5179427;28;20492;-71
2023/07/03 04:52:58;;;;;;;6.65;4.38;;;21.30;1.00;;;;;;5176346;28;20026;-71
2023/07/03 04:55:32;;;;;;;6.90;4.43;;;21.50;1.00;;;;;;5128160;28;20487;-70
2023/07/03 04:58:04;;;;;;;5.55;3.60;;;21.70;99.90;;;;;;5154285;28;20463;-69
2023/07/03 05:00:36;;;;;;;6.60;3.70;;;22.00;99.90;;;;;;5161171;28;20038;-71
2023/07/03 05:03:08;;;;;;;7.60;3.95;;;22.40;1.00;;;;;;5153364;28;20609;-71
2023/07/03 05:05:47;;;;;;;4.45;3.17;;;22.70;99.90;;;;;;5134011;28;20333;-71
2023/07/03 05:08:19;;;;;;;7.22;3.72;;;22.90;1.00;;;;;;5117292;29;20459;-70
2023/07/03 05:10:51;;;;;;;7.47;3.65;;;23.10;1.00;;;;;;5118673;29;20460;-71
2023/07/03 05:13:26;;;;;;;4.53;3.75;;;23.30;1.00;;;;;;5119031;29;20029;-71
2023/07/03 05:15:58;;;;;;;5.13;3.55;;;23.50;1.00;;;;;;5084790;28;20369;-73
2023/07/03 05:18:32;;;;;;;9.18;4.03;;;23.90;1.00;;;;;;5102321;28;20298;-70
2023/07/03 05:21:06;;;;;;;;;;;24.20;1.00;;;;;;5098445;28;20054;-71
2023/07/03 05:23:42;;;;;;;6.65;3.95;;;24.40;1.00;;;;;;5100498;29;20370;-70
2023/07/03 05:26:16;;;;;;;7.90;4.28;;;24.50;99.90;;;;;;5156937;28;20033;-72
2023/07/03 05:28:53;;;;;;;8.73;4.03;;;24.20;99.90;;;;;;5124924;28;20414;-71
2023/07/03 05:31:30;;;;;;;5.55;3.55;;;24.10;99.90;;;;;;5100621;28;20047;-70
2023/07/03 05:34:04;;;;;;;5.18;3.55;;;24.10;99.90;;;;;;5084776;29;20053;-72
2023/07/03 05:36:36;;;;;;;7.47;3.83;;;23.90;1.00;;;;;;5101786;28;20038;-71
2023/07/03 05:39:07;;;;;;;6.55;4.28;;;24.40;99.90;;;;;;5082429;29;20117;-71
2023/07/03 05:41:38;;;;;;;5.90;3.70;;;24.70;99.90;;;;;;5102198;29;20061;-71
2023/07/03 05:44:12;;;;;;;8.05;4.05;;;24.80;99.90;;;;;;5099022;29;20029;-73
2023/07/03 05:46:48;;;;;;;8.93;4.28;;;24.70;99.90;;;;;;5100085;28;20055;-72
2023/07/03 05:49:22;;;;;;;5.50;3.10;;;24.70;99.90;;;;;;5103554;28;20396;-71
2023/07/03 05:51:56;;;;;;;8.05;4.28;;;24.90;1.00;;;;;;5100429;29;20046;-71
2023/07/03 05:54:27;;;;;;;6.07;3.63;;;25.30;99.90;;;;;;5083689;28;20045;-71
2023/07/03 05:57:00;;;;;;;4.68;2.95;;;25.60;99.90;;;;;;5083961;28;20035;-71
2023/07/03 05:59:33;;;;;;;5.50;3.20;;;25.90;99.90;;;;;;5117185;28;20031;-70
2023/07/03 06:02:08;;;;;;;7.47;3.88;;;26.10;1.00;;;;;;5094398;28;20030;-71
2023/07/03 06:04:43;;;;;;;4.63;3.38;;;25.70;1.00;;;;;;5101871;28;20047;-71
2023/07/03 06:07:17;;;;;;;4.95;3.40;;;25.50;1.00;;;;;;5098712;29;20257;-71
2023/07/03 06:09:52;;;;;;;6.03;3.63;;;25.60;1.00;;;;;;5090967;29;20039;-70
2023/07/03 06:12:29;;;;;;;5.18;3.25;;;25.20;1.00;;;;;;5092255;28;20248;-71
2023/07/03 06:15:01;;;;;;;5.45;3.75;;;25.40;1.00;;;;;;5090281;29;20564;-71
2023/07/03 06:17:33;;;;;;;5.43;3.42;;;25.90;99.90;;;;;;5097553;28;20339;-71
2023/07/03 06:20:05;;;;;;;6.13;3.75;;;26.40;99.90;;;;;;5098420;28;20043;-73
2023/07/03 06:22:40;;;;;;;6.18;3.28;;;27.00;96.60;;;;;;5099518;28;20044;-71
2023/07/03 06:25:12;;;;;;;5.82;3.42;;;27.40;1.00;;;;;;5071376;28;20067;-71
2023/07/03 06:27:49;;;;;;;6.00;3.67;;;27.80;1.60;;;;;;5112269;29;20031;-72
2023/07/03 06:30:20;;;;;;;7.07;3.28;;;27.10;1.00;;;;;;5080775;28;20043;-72
2023/07/03 06:32:52;;;;;;;4.75;3.10;;;26.50;1.00;;;;;;5095858;29;20035;-73
2023/07/03 06:35:23;;;;;;;6.82;3.40;;;26.50;1.00;;;;;;5109721;28;20365;-71
2023/07/03 06:37:58;;;;;;;7.35;3.65;;;26.30;1.00;;;;;;5136846;28;20052;-71
2023/07/03 06:40:29;;;;;;;5.72;3.60;;;26.20;1.00;;;;;;5168661;28;20235;-71
2023/07/03 06:43:03;;;;;;;7.15;3.97;;;26.30;1.00;;;;;;5099819;29;20370;-70
2023/07/03 06:45:37;;;;;;;5.50;3.25;;;26.30;1.00;;;;;;5078985;28;20087;-70
2023/07/03 06:48:08;;;;;;;5.68;3.97;;;25.80;1.00;;;;;;5085292;28;20043;-71
2023/07/03 06:50:39;;;;;;;7.00;4.35;;;25.80;1.00;;;;;;5101115;28;20545;-71
2023/07/03 06:53:13;;;;;;;6.68;3.95;;;25.50;1.00;;;;;;5114330;28;20050;-71
2023/07/03 06:55:47;;;;;;;5.63;3.28;;;25.60;1.00;;;;;;5088451;28;20039;-71
2023/07/03 06:58:18;;;;;;;5.75;3.47;;;25.50;1.00;;;;;;5088642;29;20051;-72
2023/07/03 07:00:51;;;;;;;6.80;3.67;;;25.80;1.00;;;;;;5077012;29;20039;-71
2023/07/03 07:03:23;;;;;;;6.40;3.67;;;26.20;1.00;;;;;;5083377;29;20043;-71
2023/07/03 07:05:55;;;;;;;6.07;3.63;;;26.50;1.00;;;;;;5074905;28;20061;-71
2023/07/03 07:08:26;;;;;;;5.22;3.25;;;26.40;1.00;;;;;;5101251;28;20027;-70
2023/07/03 07:11:03;;;;;;;6.25;3.63;;;26.60;1.00;;;;;;5100525;28;20037;-72
2023/07/03 07:13:35;;;;;;;5.45;3.65;;;26.60;1.00;;;;;;5103560;28;20039;-72
2023/07/03 07:16:13;;;;;;;6.55;3.88;;;26.80;1.00;;;;;;5082109;29;20041;-71
2023/07/03 07:18:51;;;;;;;6.32;3.80;;;27.40;1.00;;;;;;5113604;28;20581;-70
2023/07/03 07:21:25;;;;;;;5.45;3.50;;;27.40;1.00;;;;;;5114999;28;20324;-71
2023/07/03 07:24:02;;;;;;;6.95;4.25;;;27.30;1.00;;;;;;5083125;28;20058;-71
2023/07/03 07:26:36;;;;;;;6.72;3.70;;;27.30;1.00;;;;;;5100370;28;20243;-72
2023/07/03 07:29:08;;;;;;;8.18;4.05;;;26.90;1.00;;;;;;5082266;28;20040;-72
2023/07/03 07:31:43;;;;;;;7.55;3.60;;;26.30;1.00;;;;;;5078916;28;20069;-71
2023/07/03 07:34:17;;;;;;;6.95;3.92;;;26.00;1.00;;;;;;5089954;28;20053;-71
2023/07/03 07:36:48;;;;;;;8.38;4.50;;;26.10;1.00;;;;;;5181361;28;20029;-71
2023/07/03 07:39:20;;;;;;;8.48;4.57;;;25.60;1.00;;;;;;5179025;28;20033;-72
2023/07/03 07:41:51;;;;;;;8.57;4.20;;;25.60;1.00;;;;;;5096611;28;20040;-71
2023/07/03 07:44:26;;;;;;;6.07;4.20;;;25.70;1.00;;;;;;5098786;29;20043;-72
2023/07/03 07:46:58;;;;;;;8.90;4.32;;;25.40;1.00;;;;;;5081156;28;20043;-70
2023/07/03 07:49:29;;;;;;;6.30;4.13;;;25.50;1.00;;;;;;5099469;28;20046;-71
2023/07/03 07:52:03;;;;;;;7.47;4.63;;;25.80;1.00;;;;;;5154858;28;20049;-70
2023/07/03 07:54:37;;;;;;;7.68;4.13;;;26.00;1.00;;;;;;5077603;29;20066;-71
2023/07/03 07:57:08;;;;;;;8.48;3.70;;;26.20;1.00;;;;;;5079787;28;20051;-71
2023/07/03 07:59:39;;;;;;;8.50;4.38;;;26.40;1.00;;;;;;5153465;28;20039;-70
2023/07/03 08:02:13;;;;;;;10.00;4.22;;;26.80;1.00;;;;;;5137114;28;20058;-70
2023/07/03 08:04:47;;;;;;;6.82;4.00;;;27.10;1.00;;;;;;5070261;28;20060;-72
2023/07/03 08:07:18;;;;;;;7.07;4.43;;;27.40;1.00;;;;;;5089440;28;20043;-72
2023/07/03 08:09:49;;;;;;;6.28;3.85;;;27.60;1.00;;;;;;5097985;29;20035;-72
2023/07/03 08:12:21;;;;;;;6.50;3.85;;;27.50;1.00;;;;;;5115219;29;20031;-72
2023/07/03 08:14:52;;;;;;;10.15;4.97;;;27.00;99.90;;;;;;5088754;28;20039;-72
2023/07/03 08:17:23;;;;;;;6.68;4.03;;;27.30;99.90;;;;;;5159160;28;20044;-71
2023/07/03 08:19:56;;;;;;;8.20;4.10;;;27.20;99.90;;;;;;5096396;29;20032;-72
2023/07/03 08:22:27;;;;;;;6.68;4.10;;;27.30;99.90;;;;;;5161069;28;20250;-71
2023/07/03 08:24:59;;;;;;;6.93;3.72;;;27.70;99.90;;;;;;5098893;29;20035;-71
2023/07/03 08:27:32;;;;;;;7.55;3.97;;;28.40;99.90;;;;;;5086358;28;20062;-73
2023/07/03 08:30:10;;;;;;;9.15;4.63;;;28.80;99.90;;;;;;5098441;28;20074;-72
2023/07/03 08:32:43;;;;;;;9.40;4.47;;;28.60;99.90;;;;;;5099016;28;20019;-73
2023/07/03 08:35:16;;;;;;;7.20;3.87;;;28.40;99.90;;;;;;5082355;29;20179;-70
2023/07/03 08:37:47;;;;;;;8.73;4.50;;;28.30;99.90;;;;;;5098947;28;20049;-72
2023/07/03 08:40:20;;;;;;;9.18;4.20;;;28.10;99.90;;;;;;5105359;28;20035;-72
2023/07/03 08:42:54;;;;;;;7.17;4.23;;;28.10;99.90;;;;;;5126873;28;20020;-73
2023/07/03 08:45:48;;;;;;;7.32;3.95;;;28.10;99.90;;;;;;5060893;28;20048;-73
2023/07/03 08:48:25;;;;;;;5.43;3.70;;;28.00;98.80;;;;;;5062163;29;20023;-71
2023/07/03 08:51:00;;;;;;;6.13;4.15;;;27.70;96.90;;;;;;5086853;29;20031;-73
2023/07/03 08:53:39;;;;;;;6.00;3.97;;;28.00;99.90;;;;;;5097362;28;20220;-74
2023/07/03 08:56:20;;;;;;;10.50;4.35;;;28.10;99.90;;;;;;5079104;28;20401;-72
2023/07/03 08:58:53;;;;;;;6.15;3.50;;;27.90;99.90;;;;;;5103197;28;20024;-72
2023/07/03 09:01:36;;;;;;;6.03;3.78;;;28.30;99.90;;;;;;5079738;28;20520;-74
2023/07/03 09:04:45;;;;;;;8.93;3.92;;;28.00;53.60;;;;;;5108827;28;20354;-71
2023/07/03 09:07:45;;;;;;;6.47;3.80;;;28.00;38.70;;;;;;5180073;28;20039;-71
2023/07/03 09:10:28;;;;;;;7.22;4.13;;;28.10;99.90;;;;;;5082400;29;20049;-73
2023/07/03 09:13:12;;;;;;;7.30;4.45;;;28.10;5.00;;;;;;5166770;28;20454;-72
2023/07/03 09:15:49;;;;;;;6.17;4.00;;;27.60;1.00;;;;;;5096508;28;20039;-73
2023/07/03 09:18:26;;;;;;;6.85;3.97;;;27.70;45.40;;;;;;5151591;28;20041;-72
2023/07/03 09:20:59;;;;;;;8.63;4.40;;;27.90;1.00;;;;;;5161794;28;20057;-70
2023/07/03 09:23:59;;;;;;;7.33;4.40;;;27.80;1.00;;;;;;5125901;28;20059;-72
2023/07/03 09:26:39;;;;;;;6.65;3.90;;;27.80;1.00;;;;;;5109506;28;20043;-71
2023/07/03 09:29:13;;;;;;;6.32;3.75;;;27.70;1.00;;;;;;5101213;28;20046;-73
2023/07/03 09:31:45;;;;;;;9.10;4.82;;;28.70;12.60;;;;;;5083249;28;20053;-72
2023/07/03 09:34:16;;;;;;;6.75;4.28;;;29.60;42.00;;;;;;5081442;28;20087;-73
2023/07/03 09:37:01;;;;;;;8.25;4.45;;;29.90;1.00;;;;;;5088276;28;20031;-72
2023/07/03 09:39:32;;;;;;;6.20;3.92;;;29.90;6.80;;;;;;5096655;29;20036;-73
2023/07/03 09:42:07;;;;;;;7.25;4.13;;;29.70;1.00;;;;;;5081755;29;20051;-72
2023/07/03 09:44:42;;;;;;;9.15;4.55;;;29.80;1.00;;;;;;5071261;28;20043;-72
2023/07/03 09:47:21;;;;;;;6.25;3.78;;;29.50;1.00;;;;;;5095274;29;20048;-71
2023/07/03 09:50:06;;;;;;;7.22;3.90;;;29.50;1.00;;;;;;5158386;28;20035;-73
2023/07/03 09:52:47;;;;;;;7.53;4.28;;;30.30;1.00;;;;;;5087516;28;20054;-74
2023/07/03 09:55:22;;;;;;;5.07;3.53;;;30.90;1.00;;;;;;5082658;29;20047;-71
2023/07/03 09:57:53;;;;;;;6.30;3.78;;;31.20;1.00;;;;;;5092014;28;20043;-71
2023/07/03 10:00:27;;;;;;;6.72;3.85;;;31.80;1.00;;;;;;5092741;29;20043;-72
2023/07/03 10:02:58;;;;;;;5.80;3.58;;;32.60;1.00;;;;;;5071657;29;20039;-72
2023/07/03 10:05:33;;;;;;;6.30;3.63;;;31.70;1.00;;;;;;5135244;28;20043;-71
2023/07/03 10:08:09;;;;;;;7.97;4.25;;;30.00;1.00;;;;;;5126623;28;20050;-70
2023/07/03 10:10:42;;;;;;;6.30;4.28;;;29.50;1.00;;;;;;5159749;28;20040;-70
2023/07/03 10:13:36;;;;;;;5.67;3.57;;;29.30;1.00;;;;;;5100899;28;20047;-71
2023/07/03 10:16:08;;;;;;;7.28;3.75;;;30.50;1.00;;;;;;5087207;28;20032;-72
2023/07/03 10:18:48;;;;;;;10.05;3.85;;;31.50;1.00;;;;;;5117505;28;20039;-71
2023/07/03 10:21:23;;;;;;;8.25;4.70;;;31.50;1.00;;;;;;5122627;28;20058;-72
2023/07/03 10:23:58;;;;;;;8.20;3.97;;;30.30;1.00;;;;;;5109021;28;20039;-71
2023/07/03 10:26:38;;;;;;;6.78;3.67;;;30.40;1.00;;;;;;5163263;28;20039;-72
2023/07/03 10:29:33;;;;;;;7.20;3.83;;;30.30;1.00;;;;;;5099835;28;20464;-71
2023/07/03 10:32:09;;;;;;;7.90;3.88;;;31.00;1.00;;;;;;5101318;29;20050;-71
2023/07/03 10:34:54;;;;;;;6.20;4.07;;;31.40;1.00;;;;;;5108675;28;20047;-71
2023/07/03 10:37:26;;;;;;;6.43;3.50;;;32.10;1.00;;;;;;5112657;29;20039;-72
2023/07/03 10:40:04;;;;;;;6.13;3.67;;;32.60;1.00;;;;;;5111439;28;20035;-72
2023/07/03 10:42:41;;;;;;;5.88;3.28;;;33.10;1.00;;;;;;5111621;29;20467;-72
2023/07/03 10:45:14;;;;;;;6.82;4.35;;;33.40;1.00;;;;;;5071834;28;20066;-71
2023/07/03 10:48:03;;;;;;;6.45;3.75;;;33.30;1.00;;;;;;5127408;28;20053;-71
2023/07/03 10:50:41;;;;;;;5.10;3.28;;;33.00;1.00;;;;;;5112777;28;20023;-70
2023/07/03 10:53:41;;;;;;;7.40;4.07;;;33.20;1.00;;;;;;5108927;28;20037;-71
2023/07/03 10:56:42;;;;;;;10.02;3.85;;;32.80;1.00;;;;;;5096179;28;20038;-70
2023/07/03 10:59:34;;;;;;;7.47;3.83;;;31.80;1.00;;;;;;5104585;28;21251;-71
2023/07/03 11:02:31;;;;;;;7.63;4.53;;;32.00;1.00;;;;;;5099498;28;20063;-72
2023/07/03 11:05:28;;;;;;;6.53;3.88;;;32.10;1.00;;;;;;5112491;28;20023;-72
2023/07/03 11:08:18;;;;;;;6.90;4.00;;;32.10;1.00;;;;;;5089531;29;20034;-71
2023/07/03 11:11:00;;;;;;;4.60;3.40;;;32.10;1.00;;;;;;5114616;28;20035;-71
2023/07/03 11:14:05;;;;;;;10.65;4.93;;;32.10;1.00;;;;;;5089555;28;20036;-72
2023/07/03 11:17:05;;;;;;;5.47;3.40;;;32.40;1.00;;;;;;5097293;28;20051;-73
2023/07/03 11:19:54;;;;;;;5.70;3.53;;;32.70;1.00;;;;;;5121372;28;20062;-72
2023/07/03 11:22:32;;;;;;;7.18;3.90;;;32.80;1.00;;;;;;5095263;29;20039;-71
2023/07/03 11:25:22;;;;;;;7.22;4.03;;;34.00;1.00;;;;;;5106818;29;20047;-72
2023/07/03 11:28:04;;;;;;;6.32;4.28;;;33.30;1.00;;;;;;5109855;28;20039;-71
2023/07/03 11:30:39;;;;;;;5.50;3.80;;;33.80;1.00;;;;;;5093746;29;20054;-72
2023/07/03 11:33:13;;;;;;;4.85;3.42;;;33.80;1.00;;;;;;5110332;28;20035;-72
2023/07/03 11:35:56;;;;;;;8.48;4.45;;;31.50;1.00;;;;;;5113814;29;20352;-71
2023/07/03 11:38:28;;;;;;;6.88;3.97;;;31.30;1.00;;;;;;5109857;28;20034;-70
2023/07/03 11:41:04;;;;;;;8.88;4.28;;;31.20;1.00;;;;;;5107390;28;20583;-72
2023/07/03 11:43:47;;;;;;;6.65;3.65;;;30.60;1.00;;;;;;5110190;29;20043;-71
2023/07/03 11:46:24;;;;;;;7.57;3.50;;;30.10;1.00;;;;;;5109583;28;20506;-71
2023/07/03 11:48:57;;;;;;;6.55;3.80;;;30.60;1.00;;;;;;5094733;28;20039;-72
2023/07/03 11:51:32;;;;;;;7.25;4.35;;;30.20;1.00;;;;;;5112400;29;20041;-72
2023/07/03 11:54:18;;;;;;;6.72;3.33;;;29.60;1.00;;;;;;5102061;28;20039;-73
2023/07/03 11:56:54;;;;;;;8.43;3.83;;;30.10;1.00;;;;;;5107701;29;20037;-72
2023/07/03 11:59:29;;;;;;;5.85;3.72;;;30.80;1.00;;;;;;5102848;28;20194;-72
2023/07/03 12:02:16;;;;;;;5.70;3.28;;;30.20;1.00;;;;;;5105907;28;20047;-71
2023/07/03 12:04:53;;;;;;;5.65;3.70;;;28.90;1.00;;;;;;5109250;28;20097;-72
2023/07/03 12:07:24;;;;;;;4.25;3.10;;;29.80;1.00;;;;;;5097222;28;20034;-71
2023/07/03 12:10:18;;;;;;;7.50;3.72;;;30.50;1.00;;;;;;5107129;28;20085;-73
2023/07/03 12:13:26;;;;;;;7.70;3.67;;;30.50;1.00;;;;;;5115237;28;20023;-73
2023/07/03 12:16:00;;;;;;;5.22;3.35;;;30.60;1.00;;;;;;5110507;28;20053;-72
2023/07/03 12:18:33;;;;;;;8.75;3.97;;;31.30;1.00;;;;;;5109062;29;20027;-72
2023/07/03 12:21:06;;;;;;;7.00;3.90;;;31.10;1.00;;;;;;5103537;28;20563;-72
2023/07/03 12:23:48;;;;;;;6.88;3.80;;;31.00;1.00;;;;;;5114447;28;20527;-73
2023/07/03 12:26:21;;;;;;;6.82;3.72;;;31.50;1.00;;;;;;5111286;28;20379;-72
2023/07/03 12:29:04;;;;;;;6.97;4.33;;;32.20;1.00;;;;;;5087399;28;20042;-72
2023/07/03 12:31:40;;;;;;;5.83;4.27;;;34.10;1.00;;;;;;5114843;28;20313;-72
2023/07/03 12:34:11;;;;;;;6.30;4.05;;;35.30;1.00;;;;;;5110904;28;20037;-71
2023/07/03 12:36:45;;;;;;;5.72;3.58;;;36.10;1.00;;;;;;5101581;28;20519;-73
2023/07/03 12:39:18;;;;;;;6.75;3.85;;;35.80;1.00;;;;;;5104303;28;20058;-72
2023/07/03 12:41:50;;;;;;;6.18;3.63;;;35.50;1.00;;;;;;5089597;28;20047;-72
2023/07/03 12:44:24;;;;;;;4.43;3.70;;;34.90;1.00;;;;;;5102409;28;20047;-71
2023/07/03 12:47:06;;;;;;;6.55;3.15;;;33.90;1.00;;;;;;5102334;28;20207;-71
2023/07/03 12:50:01;;;;;;;7.57;4.03;;;34.10;1.00;;;;;;5114715;29;20035;-71
2023/07/03 12:52:35;;;;;;;6.32;4.05;;;33.30;99.90;;;;;;5081170;28;20039;-72
2023/07/03 12:55:07;;;;;;;6.03;3.67;;;32.60;99.90;;;;;;5087939;28;20254;-72
2023/07/03 12:57:38;;;;;;;4.22;3.15;;;32.90;99.90;;;;;;5101829;28;20051;-72
2023/07/03 13:00:23;;;;;;;6.97;4.20;;;35.50;1.00;;;;;;5112697;29;20027;-71
2023/07/03 13:03:08;;;;;;;7.47;4.60;;;36.80;1.00;;;;;;5072492;28;20245;-72
2023/07/03 13:05:40;;;;;;;6.22;4.20;;;35.10;1.00;;;;;;5096416;28;20061;-71
2023/07/03 13:08:14;;;;;;;7.15;3.58;;;34.50;99.90;;;;;;5112428;28;20038;-71
2023/07/03 13:11:02;;;;;;;5.38;3.78;;;34.20;99.90;;;;;;5105326;28;20452;-71
2023/07/03 13:13:38;;;;;;;8.65;4.43;;;34.50;99.90;;;;;;5166800;28;20220;-71
2023/07/03 13:16:19;;;;;;;7.40;4.47;;;35.10;99.90;;;;;;5101768;28;20464;-74
2023/07/03 13:18:58;;;;;;;7.60;4.20;;;35.70;1.00;;;;;;5112708;28;20031;-71
2023/07/03 13:21:34;;;;;;;5.03;3.25;;;33.80;99.90;;;;;;5107223;28;20046;-71
2023/07/03 13:24:12;;;;;;;7.07;4.10;;;33.20;99.90;;;;;;5117121;28;20060;-72
2023/07/03 13:26:51;;;;;;;6.68;4.10;;;32.40;99.90;;;;;;5112379;28;20383;-71
2023/07/03 13:29:28;;;;;;;5.32;3.95;;;33.30;1.00;;;;;;5118379;28;20046;-73
2023/07/03 13:32:20;;;;;;;6.07;3.45;;;33.70;99.90;;;;;;5100427;28;20056;-71
2023/07/03 13:35:01;;;;;;;6.65;3.95;;;35.00;99.90;;;;;;5110635;29;20023;-72
2023/07/03 13:37:35;;;;;;;7.65;4.22;;;34.00;99.90;;;;;;5079243;28;20058;-72
2023/07/03 13:40:10;;;;;;;6.13;3.95;;;33.50;1.00;;;;;;5115401;29;20031;-71
2023/07/03 13:42:41;;;;;;;8.25;4.95;;;33.90;1.00;;;;;;5107604;28;20065;-71
2023/07/03 13:45:15;;;;;;;7.60;3.80;;;33.50;1.00;;;;;;5117462;28;20404;-72